sensor_id;sensor_type;location;lat;lon;timestamp;pressure;altitude;pressure_sealevel;temperature;humidity
54248;BME280;40161;39.768;2.722;2023-11-19T00:01:31;102136.56;;;11.69;100.00
54248;BME280;40161;39.768;2.722;2023-11-19T00:03:58;102129.53;;;11.59;100.00
54248;BME280;40161;39.768;2.722;2023-11-19T00:06:23;102133.81;;;11.69;100.00
54248;BME280;40161;39.768;2.722;2023-11-19T00:08:53;102126.59;;;11.64;100.00
54248;BME280;40161;39.768;2.722;2023-11-19T00:11:19;102133.13;;;11.72;100.00
54248;BME280;40161;39.768;2.722;2023-11-19T00:13:44;102139.22;;;11.77;100.00
54248;BME280;40161;39.768;2.722;2023-11-19T00:16:10;102124.09;;;11.71;100.00
54248;BME280;40161;39.768;2.722;2023-11-19T00:18:36;102138.22;;;11.82;100.00
54248;BME280;40161;39.768;2.722;2023-11-19T00:21:02;102134.59;;;11.57;100.00
54248;BME280;40161;39.768;2.722;2023-11-19T00:23:28;102131.84;;;11.69;100.00
54248;BME280;40161;39.768;2.722;2023-11-19T00:25:53;102123.72;;;11.73;100.00
54248;BME280;40161;39.768;2.722;2023-11-19T00:28:19;102120.91;;;11.81;100.00
54248;BME280;40161;39.768;2.722;2023-11-19T00:30:44;102122.22;;;11.84;100.00
54248;BME280;40161;39.768;2.722;2023-11-19T00:33:10;102095.53;;;11.63;100.00
54248;BME280;40161;39.768;2.722;2023-11-19T00:35:36;102098.38;;;11.55;100.00
54248;BME280;40161;39.768;2.722;2023-11-19T00:38:01;102114.75;;;11.51;100.00
54248;BME280;40161;39.768;2.722;2023-11-19T00:40:28;102114.72;;;11.39;100.00
54248;BME280;40161;39.768;2.722;2023-11-19T00:42:53;102080.94;;;11.17;100.00
54248;BME280;40161;39.768;2.722;2023-11-19T00:45:19;102104.41;;;11.48;100.00
54248;BME280;40161;39.768;2.722;2023-11-19T00:47:45;102088.56;;;11.33;100.00
54248;BME280;40161;39.768;2.722;2023-11-19T00:50:10;102095.13;;;11.40;100.00
54248;BME280;40161;39.768;2.722;2023-11-19T00:52:37;102111.19;;;11.51;100.00
54248;BME280;40161;39.768;2.722;2023-11-19T00:55:03;102086.41;;;11.38;100.00
54248;BME280;40161;39.768;2.722;2023-11-19T00:57:30;102086.81;;;11.28;100.00
54248;BME280;40161;39.768;2.722;2023-11-19T01:00:00;102079.63;;;11.03;100.00
54248;BME280;40161;39.768;2.722;2023-11-19T01:02:26;102109.91;;;11.15;100.00
54248;BME280;40161;39.768;2.722;2023-11-19T01:04:51;102098.56;;;11.16;100.00
54248;BME280;40161;39.768;2.722;2023-11-19T01:07:17;102109.16;;;11.27;100.00
54248;BME280;40161;39.768;2.722;2023-11-19T01:09:43;102070.03;;;11.09;100.00
54248;BME280;40161;39.768;2.722;2023-11-19T01:12:08;102099.09;;;11.31;100.00
54248;BME280;40161;39.768;2.722;2023-11-19T01:14:35;102087.53;;;11.25;100.00
54248;BME280;40161;39.768;2.722;2023-11-19T01:17:01;102094.25;;;11.28;100.00
54248;BME280;40161;39.768;2.722;2023-11-19T01:19:27;102087.97;;;11.27;100.00
54248;BME280;40161;39.768;2.722;2023-11-19T01:21:54;102075.13;;;11.19;100.00
54248;BME280;40161;39.768;2.722;2023-11-19T01:24:20;102097.97;;;11.11;100.00
54248;BME280;40161;39.768;2.722;2023-11-19T01:26:45;102082.44;;;11.15;100.00
54248;BME280;40161;39.768;2.722;2023-11-19T01:29:12;102083.13;;;11.24;100.00
54248;BME280;40161;39.768;2.722;2023-11-19T01:31:41;102086.63;;;11.33;100.00
54248;BME280;40161;39.768;2.722;2023-11-19T01:34:07;102076.44;;;11.34;100.00
54248;BME280;40161;39.768;2.722;2023-11-19T01:36:33;102087.03;;;11.23;100.00
54248;BME280;40161;39.768;2.722;2023-11-19T01:38:59;102078.31;;;11.21;100.00
54248;BME280;40161;39.768;2.722;2023-11-19T01:41:24;102081.28;;;11.16;100.00
54248;BME280;40161;39.768;2.722;2023-11-19T01:43:50;102050.56;;;11.02;100.00
54248;BME280;40161;39.768;2.722;2023-11-19T01:46:16;102074.25;;;11.06;100.00
54248;BME280;40161;39.768;2.722;2023-11-19T01:48:45;102076.75;;;10.99;100.00
54248;BME280;40161;39.768;2.722;2023-11-19T01:51:13;102064.34;;;10.93;100.00
54248;BME280;40161;39.768;2.722;2023-11-19T01:53:42;102029.31;;;10.69;100.00
54248;BME280;40161;39.768;2.722;2023-11-19T01:56:09;102042.75;;;11.04;100.00
54248;BME280;40161;39.768;2.722;2023-11-19T01:58:36;102069.13;;;11.05;100.00
54248;BME280;40161;39.768;2.722;2023-11-19T02:01:02;102057.84;;;10.98;100.00
54248;BME280;40161;39.768;2.722;2023-11-19T02:03:31;102051.88;;;10.96;100.00
54248;BME280;40161;39.768;2.722;2023-11-19T02:05:59;102054.13;;;10.81;100.00
54248;BME280;40161;39.768;2.722;2023-11-19T02:08:25;102036.53;;;10.53;100.00
54248;BME280;40161;39.768;2.722;2023-11-19T02:10:51;102047.00;;;10.80;100.00
54248;BME280;40161;39.768;2.722;2023-11-19T02:13:18;102049.16;;;10.96;100.00
54248;BME280;40161;39.768;2.722;2023-11-19T02:15:44;102056.50;;;10.83;100.00
54248;BME280;40161;39.768;2.722;2023-11-19T02:20:50;102022.00;;;10.52;100.00
54248;BME280;40161;39.768;2.722;2023-11-19T02:23:18;102045.94;;;10.73;100.00
54248;BME280;40161;39.768;2.722;2023-11-19T02:28:39;102043.53;;;10.50;100.00
54248;BME280;40161;39.768;2.722;2023-11-19T02:31:05;102003.59;;;10.32;100.00
54248;BME280;40161;39.768;2.722;2023-11-19T02:33:35;102039.22;;;10.40;100.00
54248;BME280;40161;39.768;2.722;2023-11-19T02:36:02;102036.28;;;10.45;100.00
54248;BME280;40161;39.768;2.722;2023-11-19T02:38:29;102038.69;;;10.47;100.00
54248;BME280;40161;39.768;2.722;2023-11-19T02:40:54;102038.31;;;10.57;100.00
54248;BME280;40161;39.768;2.722;2023-11-19T02:43:20;102039.41;;;10.56;100.00
54248;BME280;40161;39.768;2.722;2023-11-19T02:45:45;102044.88;;;10.65;100.00
54248;BME280;40161;39.768;2.722;2023-11-19T02:48:11;102039.63;;;10.72;100.00
54248;BME280;40161;39.768;2.722;2023-11-19T02:50:36;102037.09;;;10.88;100.00
54248;BME280;40161;39.768;2.722;2023-11-19T02:53:02;102037.41;;;10.86;100.00
54248;BME280;40161;39.768;2.722;2023-11-19T02:55:27;102046.53;;;10.99;100.00
54248;BME280;40161;39.768;2.722;2023-11-19T02:57:56;102030.72;;;10.75;100.00
54248;BME280;40161;39.768;2.722;2023-11-19T03:00:24;102053.38;;;10.72;100.00
54248;BME280;40161;39.768;2.722;2023-11-19T03:02:56;102049.31;;;10.49;100.00
54248;BME280;40161;39.768;2.722;2023-11-19T03:05:26;102023.81;;;10.18;100.00
54248;BME280;40161;39.768;2.722;2023-11-19T03:07:54;102042.41;;;10.42;100.00
54248;BME280;40161;39.768;2.722;2023-11-19T03:10:20;102033.38;;;10.42;100.00
54248;BME280;40161;39.768;2.722;2023-11-19T03:12:45;102034.94;;;10.52;100.00
54248;BME280;40161;39.768;2.722;2023-11-19T03:15:11;102030.06;;;10.57;100.00
54248;BME280;40161;39.768;2.722;2023-11-19T03:17:41;102033.88;;;10.86;100.00
54248;BME280;40161;39.768;2.722;2023-11-19T03:20:09;102025.50;;;10.82;100.00
54248;BME280;40161;39.768;2.722;2023-11-19T03:22:39;102009.44;;;10.72;100.00
54248;BME280;40161;39.768;2.722;2023-11-19T03:25:07;102008.75;;;10.75;100.00
54248;BME280;40161;39.768;2.722;2023-11-19T03:27:34;102022.75;;;10.61;100.00
54248;BME280;40161;39.768;2.722;2023-11-19T03:30:02;102014.44;;;10.28;100.00
54248;BME280;40161;39.768;2.722;2023-11-19T03:32:30;102012.09;;;10.09;100.00
54248;BME280;40161;39.768;2.722;2023-11-19T03:34:56;102023.22;;;10.13;100.00
54248;BME280;40161;39.768;2.722;2023-11-19T03:37:21;102002.31;;;9.99;100.00
54248;BME280;40161;39.768;2.722;2023-11-19T03:39:47;102023.38;;;10.08;100.00
54248;BME280;40161;39.768;2.722;2023-11-19T03:42:13;102024.03;;;10.05;100.00
54248;BME280;40161;39.768;2.722;2023-11-19T03:44:38;101991.19;;;9.96;100.00
54248;BME280;40161;39.768;2.722;2023-11-19T03:47:04;102025.75;;;10.18;100.00
54248;BME280;40161;39.768;2.722;2023-11-19T03:49:30;102015.78;;;10.13;100.00
54248;BME280;40161;39.768;2.722;2023-11-19T03:51:55;101998.38;;;10.09;100.00
54248;BME280;40161;39.768;2.722;2023-11-19T03:54:21;102026.09;;;10.16;100.00
54248;BME280;40161;39.768;2.722;2023-11-19T03:56:48;102012.31;;;10.34;100.00
54248;BME280;40161;39.768;2.722;2023-11-19T03:59:14;102028.25;;;10.40;100.00
54248;BME280;40161;39.768;2.722;2023-11-19T04:01:40;102003.69;;;10.44;100.00
54248;BME280;40161;39.768;2.722;2023-11-19T04:04:06;102014.78;;;10.48;100.00
54248;BME280;40161;39.768;2.722;2023-11-19T04:06:32;101977.44;;;10.34;100.00
54248;BME280;40161;39.768;2.722;2023-11-19T04:08:57;102001.47;;;10.58;100.00
54248;BME280;40161;39.768;2.722;2023-11-19T04:11:23;101976.31;;;10.06;100.00
54248;BME280;40161;39.768;2.722;2023-11-19T04:13:48;101992.84;;;10.18;100.00
54248;BME280;40161;39.768;2.722;2023-11-19T04:16:14;101987.34;;;10.18;100.00
54248;BME280;40161;39.768;2.722;2023-11-19T04:18:40;102004.28;;;10.20;100.00
54248;BME280;40161;39.768;2.722;2023-11-19T04:21:07;102004.28;;;10.20;100.00
54248;BME280;40161;39.768;2.722;2023-11-19T04:23:33;101989.81;;;10.11;100.00
54248;BME280;40161;39.768;2.722;2023-11-19T04:26:02;101971.19;;;9.95;100.00
54248;BME280;40161;39.768;2.722;2023-11-19T04:28:27;101985.63;;;10.13;100.00
54248;BME280;40161;39.768;2.722;2023-11-19T04:30:53;101992.56;;;10.40;100.00
54248;BME280;40161;39.768;2.722;2023-11-19T04:33:18;101998.19;;;10.44;100.00
54248;BME280;40161;39.768;2.722;2023-11-19T04:35:44;101999.38;;;10.34;100.00
54248;BME280;40161;39.768;2.722;2023-11-19T04:38:10;101997.31;;;10.02;100.00
54248;BME280;40161;39.768;2.722;2023-11-19T04:40:35;101965.81;;;9.78;100.00
54248;BME280;40161;39.768;2.722;2023-11-19T04:43:01;101993.94;;;9.96;100.00
54248;BME280;40161;39.768;2.722;2023-11-19T04:45:26;101991.13;;;10.05;100.00
54248;BME280;40161;39.768;2.722;2023-11-19T04:47:52;102004.03;;;10.04;100.00
54248;BME280;40161;39.768;2.722;2023-11-19T04:50:17;101991.63;;;10.07;100.00
54248;BME280;40161;39.768;2.722;2023-11-19T04:52:43;101981.44;;;10.07;100.00
54248;BME280;40161;39.768;2.722;2023-11-19T04:55:12;102000.88;;;9.93;100.00
54248;BME280;40161;39.768;2.722;2023-11-19T04:57:39;101997.84;;;9.86;100.00
54248;BME280;40161;39.768;2.722;2023-11-19T05:00:05;102010.25;;;9.92;100.00
54248;BME280;40161;39.768;2.722;2023-11-19T05:02:34;101998.47;;;9.92;100.00
54248;BME280;40161;39.768;2.722;2023-11-19T05:04:59;102008.50;;;10.17;100.00
54248;BME280;40161;39.768;2.722;2023-11-19T05:07:25;101995.56;;;10.18;100.00
54248;BME280;40161;39.768;2.722;2023-11-19T05:09:51;101998.44;;;10.30;100.00
54248;BME280;40161;39.768;2.722;2023-11-19T05:12:16;101995.50;;;10.06;100.00
54248;BME280;40161;39.768;2.722;2023-11-19T05:14:42;101978.53;;;9.83;100.00
54248;BME280;40161;39.768;2.722;2023-11-19T05:17:14;101992.44;;;9.78;100.00
54248;BME280;40161;39.768;2.722;2023-11-19T05:19:39;101997.94;;;9.69;100.00
54248;BME280;40161;39.768;2.722;2023-11-19T05:22:05;101962.00;;;9.62;100.00
54248;BME280;40161;39.768;2.722;2023-11-19T05:24:31;101990.56;;;9.90;100.00
54248;BME280;40161;39.768;2.722;2023-11-19T05:26:57;101994.72;;;10.05;100.00
54248;BME280;40161;39.768;2.722;2023-11-19T05:29:23;101992.25;;;10.12;100.00
54248;BME280;40161;39.768;2.722;2023-11-19T05:31:49;101996.63;;;10.05;100.00
54248;BME280;40161;39.768;2.722;2023-11-19T05:34:14;101997.59;;;10.09;100.00
54248;BME280;40161;39.768;2.722;2023-11-19T05:36:40;101961.31;;;10.03;100.00
54248;BME280;40161;39.768;2.722;2023-11-19T05:39:06;101988.13;;;10.27;100.00
54248;BME280;40161;39.768;2.722;2023-11-19T05:41:31;101996.97;;;10.03;100.00
54248;BME280;40161;39.768;2.722;2023-11-19T05:43:57;101990.00;;;9.76;100.00
54248;BME280;40161;39.768;2.722;2023-11-19T05:46:22;101969.81;;;9.42;100.00
54248;BME280;40161;39.768;2.722;2023-11-19T05:48:48;101973.63;;;9.59;100.00
54248;BME280;40161;39.768;2.722;2023-11-19T05:51:14;101972.03;;;9.58;100.00
54248;BME280;40161;39.768;2.722;2023-11-19T05:53:40;102003.41;;;9.69;100.00
54248;BME280;40161;39.768;2.722;2023-11-19T05:56:06;101989.84;;;9.72;100.00
54248;BME280;40161;39.768;2.722;2023-11-19T05:58:34;101996.41;;;9.89;100.00
54248;BME280;40161;39.768;2.722;2023-11-19T06:01:01;102006.19;;;9.98;100.00
54248;BME280;40161;39.768;2.722;2023-11-19T06:03:28;101996.06;;;9.90;100.00
54248;BME280;40161;39.768;2.722;2023-11-19T06:05:53;101996.72;;;9.87;100.00
54248;BME280;40161;39.768;2.722;2023-11-19T06:08:20;101975.97;;;9.78;100.00
54248;BME280;40161;39.768;2.722;2023-11-19T06:10:46;101994.19;;;10.12;100.00
54248;BME280;40161;39.768;2.722;2023-11-19T06:13:13;102004.47;;;10.15;100.00
54248;BME280;40161;39.768;2.722;2023-11-19T06:15:43;101994.81;;;9.88;100.00
54248;BME280;40161;39.768;2.722;2023-11-19T06:18:09;101993.09;;;9.74;100.00
54248;BME280;40161;39.768;2.722;2023-11-19T06:20:36;102000.47;;;9.83;100.00
54248;BME280;40161;39.768;2.722;2023-11-19T06:23:02;101990.78;;;9.85;100.00
54248;BME280;40161;39.768;2.722;2023-11-19T06:25:28;101982.16;;;9.95;100.00
54248;BME280;40161;39.768;2.722;2023-11-19T06:27:54;101993.69;;;10.10;100.00
54248;BME280;40161;39.768;2.722;2023-11-19T06:30:19;101981.31;;;10.04;100.00
54248;BME280;40161;39.768;2.722;2023-11-19T06:32:46;102015.72;;;10.31;100.00
54248;BME280;40161;39.768;2.722;2023-11-19T06:35:12;101992.25;;;10.12;100.00
54248;BME280;40161;39.768;2.722;2023-11-19T06:37:39;102013.38;;;10.12;100.00
54248;BME280;40161;39.768;2.722;2023-11-19T06:40:05;102016.63;;;9.75;100.00
54248;BME280;40161;39.768;2.722;2023-11-19T06:42:32;101983.38;;;9.39;100.00
54248;BME280;40161;39.768;2.722;2023-11-19T06:44:57;102027.94;;;9.65;100.00
54248;BME280;40161;39.768;2.722;2023-11-19T06:47:27;102015.38;;;9.64;100.00
54248;BME280;40161;39.768;2.722;2023-11-19T06:49:53;102019.00;;;9.77;100.00
54248;BME280;40161;39.768;2.722;2023-11-19T06:52:19;102011.56;;;9.86;100.00
54248;BME280;40161;39.768;2.722;2023-11-19T06:54:45;102020.00;;;9.81;100.00
54248;BME280;40161;39.768;2.722;2023-11-19T06:57:13;102018.91;;;9.65;100.00
54248;BME280;40161;39.768;2.722;2023-11-19T06:59:39;102013.91;;;9.67;100.00
54248;BME280;40161;39.768;2.722;2023-11-19T07:02:05;102010.13;;;9.80;100.00
54248;BME280;40161;39.768;2.722;2023-11-19T07:04:31;102013.00;;;9.92;100.00
54248;BME280;40161;39.768;2.722;2023-11-19T07:06:57;102013.50;;;9.86;100.00
54248;BME280;40161;39.768;2.722;2023-11-19T07:09:22;102011.13;;;9.75;100.00
54248;BME280;40161;39.768;2.722;2023-11-19T07:11:48;102015.31;;;9.82;100.00
54248;BME280;40161;39.768;2.722;2023-11-19T07:14:15;102016.59;;;9.84;100.00
54248;BME280;40161;39.768;2.722;2023-11-19T07:16:41;101997.56;;;9.79;100.00
54248;BME280;40161;39.768;2.722;2023-11-19T07:19:08;102020.66;;;10.08;100.00
54248;BME280;40161;39.768;2.722;2023-11-19T07:21:34;102023.81;;;10.18;100.00
54248;BME280;40161;39.768;2.722;2023-11-19T07:24:00;102018.78;;;9.91;100.00
54248;BME280;40161;39.768;2.722;2023-11-19T07:26:27;102027.78;;;10.00;100.00
54248;BME280;40161;39.768;2.722;2023-11-19T07:28:53;102020.47;;;10.13;100.00
54248;BME280;40161;39.768;2.722;2023-11-19T07:31:18;102017.44;;;10.06;100.00
54248;BME280;40161;39.768;2.722;2023-11-19T07:33:47;102022.88;;;10.14;100.00
54248;BME280;40161;39.768;2.722;2023-11-19T07:36:13;102006.19;;;9.98;100.00
54248;BME280;40161;39.768;2.722;2023-11-19T07:38:39;102020.13;;;10.14;100.00
54248;BME280;40161;39.768;2.722;2023-11-19T07:41:07;102017.09;;;10.07;100.00
54248;BME280;40161;39.768;2.722;2023-11-19T07:43:38;102023.66;;;10.15;100.00
54248;BME280;40161;39.768;2.722;2023-11-19T07:46:04;101998.34;;;9.88;100.00
54248;BME280;40161;39.768;2.722;2023-11-19T07:48:33;102008.41;;;10.05;100.00
54248;BME280;40161;39.768;2.722;2023-11-19T07:51:00;102016.88;;;10.21;100.00
54248;BME280;40161;39.768;2.722;2023-11-19T07:53:25;102029.63;;;10.26;100.00
54248;BME280;40161;39.768;2.722;2023-11-19T07:55:51;102033.19;;;10.17;100.00
54248;BME280;40161;39.768;2.722;2023-11-19T07:58:17;102026.41;;;10.15;100.00
54248;BME280;40161;39.768;2.722;2023-11-19T08:00:43;102037.22;;;10.20;100.00
54248;BME280;40161;39.768;2.722;2023-11-19T08:03:08;102049.56;;;10.35;100.00
54248;BME280;40161;39.768;2.722;2023-11-19T08:05:34;102053.09;;;10.44;100.00
54248;BME280;40161;39.768;2.722;2023-11-19T08:07:59;102041.72;;;10.54;100.00
54248;BME280;40161;39.768;2.722;2023-11-19T08:10:26;102033.88;;;10.44;100.00
54248;BME280;40161;39.768;2.722;2023-11-19T08:12:52;102047.34;;;10.58;100.00
54248;BME280;40161;39.768;2.722;2023-11-19T08:15:17;102045.84;;;10.39;100.00
54248;BME280;40161;39.768;2.722;2023-11-19T08:17:43;102056.53;;;10.32;100.00
54248;BME280;40161;39.768;2.722;2023-11-19T08:20:09;102065.25;;;10.34;100.00
54248;BME280;40161;39.768;2.722;2023-11-19T08:22:38;102050.59;;;10.21;100.00
54248;BME280;40161;39.768;2.722;2023-11-19T08:25:05;102059.66;;;10.22;100.00
54248;BME280;40161;39.768;2.722;2023-11-19T08:27:31;102067.50;;;10.32;100.00
54248;BME280;40161;39.768;2.722;2023-11-19T08:29:56;102041.25;;;10.22;100.00
54248;BME280;40161;39.768;2.722;2023-11-19T08:32:25;102058.56;;;10.44;100.00
54248;BME280;40161;39.768;2.722;2023-11-19T08:34:52;102069.09;;;10.63;100.00
54248;BME280;40161;39.768;2.722;2023-11-19T08:37:17;102066.69;;;10.61;100.00
54248;BME280;40161;39.768;2.722;2023-11-19T08:39:49;102067.88;;;10.52;100.00
54248;BME280;40161;39.768;2.722;2023-11-19T08:42:16;102071.41;;;10.52;100.00
54248;BME280;40161;39.768;2.722;2023-11-19T08:44:42;102076.59;;;10.54;100.00
54248;BME280;40161;39.768;2.722;2023-11-19T08:47:12;102077.31;;;10.63;100.00
54248;BME280;40161;39.768;2.722;2023-11-19T08:49:38;102077.59;;;10.70;100.00
54248;BME280;40161;39.768;2.722;2023-11-19T08:52:05;102074.81;;;10.79;100.00
54248;BME280;40161;39.768;2.722;2023-11-19T08:54:32;102052.09;;;10.69;100.00
54248;BME280;40161;39.768;2.722;2023-11-19T08:56:58;102068.56;;;10.69;100.00
54248;BME280;40161;39.768;2.722;2023-11-19T08:59:24;102074.72;;;10.66;100.00
54248;BME280;40161;39.768;2.722;2023-11-19T09:01:50;102069.66;;;10.77;100.00
54248;BME280;40161;39.768;2.722;2023-11-19T09:04:16;102071.84;;;10.84;100.00
54248;BME280;40161;39.768;2.722;2023-11-19T09:06:41;102047.00;;;10.80;100.00
54248;BME280;40161;39.768;2.722;2023-11-19T09:09:08;102045.47;;;10.91;100.00
54248;BME280;40161;39.768;2.722;2023-11-19T09:11:35;102055.28;;;11.13;100.00
54248;BME280;40161;39.768;2.722;2023-11-19T09:14:00;102037.66;;;11.14;100.00
54248;BME280;40161;39.768;2.722;2023-11-19T09:16:26;102034.16;;;11.26;100.00
54248;BME280;40161;39.768;2.722;2023-11-19T09:18:51;102047.84;;;11.47;100.00
54248;BME280;40161;39.768;2.722;2023-11-19T09:21:17;102040.50;;;11.51;100.00
54248;BME280;40161;39.768;2.722;2023-11-19T09:23:43;102076.41;;;11.79;100.00
54248;BME280;40161;39.768;2.722;2023-11-19T09:26:09;102062.78;;;11.83;100.00
54248;BME280;40161;39.768;2.722;2023-11-19T09:28:37;102066.16;;;12.01;100.00
54248;BME280;40161;39.768;2.722;2023-11-19T09:31:03;102041.28;;;11.97;100.00
54248;BME280;40161;39.768;2.722;2023-11-19T09:33:31;102062.38;;;12.18;100.00
54248;BME280;40161;39.768;2.722;2023-11-19T09:35:56;102065.13;;;12.30;100.00
54248;BME280;40161;39.768;2.722;2023-11-19T09:38:23;102074.41;;;12.50;100.00
54248;BME280;40161;39.768;2.722;2023-11-19T09:40:48;102066.00;;;12.58;100.00
54248;BME280;40161;39.768;2.722;2023-11-19T09:43:17;102064.94;;;12.75;100.00
54248;BME280;40161;39.768;2.722;2023-11-19T09:45:52;102072.28;;;12.83;100.00
54248;BME280;40161;39.768;2.722;2023-11-19T09:48:19;102064.56;;;12.89;100.00
54248;BME280;40161;39.768;2.722;2023-11-19T09:50:48;102052.47;;;12.94;100.00
54248;BME280;40161;39.768;2.722;2023-11-19T09:53:14;102074.00;;;13.16;100.00
54248;BME280;40161;39.768;2.722;2023-11-19T09:55:41;102067.53;;;13.24;100.00
54248;BME280;40161;39.768;2.722;2023-11-19T09:58:07;102064.19;;;13.31;100.00
54248;BME280;40161;39.768;2.722;2023-11-19T10:00:33;102070.22;;;13.49;100.00
54248;BME280;40161;39.768;2.722;2023-11-19T10:02:59;102051.16;;;13.44;100.00
54248;BME280;40161;39.768;2.722;2023-11-19T10:05:25;102068.00;;;13.70;100.00
54248;BME280;40161;39.768;2.722;2023-11-19T10:07:52;102066.13;;;13.74;100.00
54248;BME280;40161;39.768;2.722;2023-11-19T10:10:18;102053.69;;;13.81;100.00
54248;BME280;40161;39.768;2.722;2023-11-19T10:12:47;102022.53;;;13.80;100.00
54248;BME280;40161;39.768;2.722;2023-11-19T10:15:20;102055.78;;;14.19;100.00
54248;BME280;40161;39.768;2.722;2023-11-19T10:17:47;102060.38;;;14.31;100.00
54248;BME280;40161;39.768;2.722;2023-11-19T10:20:13;102053.81;;;14.35;100.00
54248;BME280;40161;39.768;2.722;2023-11-19T10:22:38;102057.00;;;14.53;100.00
54248;BME280;40161;39.768;2.722;2023-11-19T10:25:25;102062.38;;;14.65;100.00
54248;BME280;40161;39.768;2.722;2023-11-19T10:27:56;102051.84;;;14.71;100.00
54248;BME280;40161;39.768;2.722;2023-11-19T10:30:23;102046.94;;;14.80;100.00
54248;BME280;40161;39.768;2.722;2023-11-19T10:33:11;102044.00;;;14.92;99.03
54248;BME280;40161;39.768;2.722;2023-11-19T10:35:54;102046.13;;;14.99;96.53
54248;BME280;40161;39.768;2.722;2023-11-19T10:38:22;102028.94;;;15.09;94.29
54248;BME280;40161;39.768;2.722;2023-11-19T10:40:49;102041.97;;;15.28;93.29
54248;BME280;40161;39.768;2.722;2023-11-19T10:43:19;102038.94;;;15.37;92.89
54248;BME280;40161;39.768;2.722;2023-11-19T10:45:45;102032.75;;;15.43;91.69
54248;BME280;40161;39.768;2.722;2023-11-19T10:48:10;102038.09;;;15.56;91.75
54248;BME280;40161;39.768;2.722;2023-11-19T10:50:39;102028.25;;;15.58;92.11
54248;BME280;40161;39.768;2.722;2023-11-19T10:53:06;102040.34;;;15.70;91.19
54248;BME280;40161;39.768;2.722;2023-11-19T10:55:35;102025.00;;;15.76;90.87
54248;BME280;40161;39.768;2.722;2023-11-19T10:58:03;102015.69;;;15.84;89.34
54248;BME280;40161;39.768;2.722;2023-11-19T11:03:16;102011.66;;;16.04;86.30
54248;BME280;40161;39.768;2.722;2023-11-19T11:05:42;102020.38;;;16.06;86.18
54248;BME280;40161;39.768;2.722;2023-11-19T11:08:08;102015.69;;;16.10;85.51
54248;BME280;40161;39.768;2.722;2023-11-19T11:10:39;102017.41;;;16.19;85.58
54248;BME280;40161;39.768;2.722;2023-11-19T11:13:07;102011.91;;;16.22;85.22
54248;BME280;40161;39.768;2.722;2023-11-19T11:15:34;102010.78;;;16.27;85.97
54248;BME280;40161;39.768;2.722;2023-11-19T11:18:01;102003.44;;;16.38;85.44
54248;BME280;40161;39.768;2.722;2023-11-19T11:20:32;102002.72;;;16.45;85.02
54248;BME280;40161;39.768;2.722;2023-11-19T11:25:52;101995.81;;;16.61;85.85
54248;BME280;40161;39.768;2.722;2023-11-19T11:31:15;101973.72;;;16.69;85.26
54248;BME280;40161;39.768;2.722;2023-11-19T11:39:22;101939.03;;;16.78;83.39
54248;BME280;40161;39.768;2.722;2023-11-19T11:45:02;101949.53;;;16.99;83.61
54248;BME280;40161;39.768;2.722;2023-11-19T11:50:24;101941.31;;;17.10;83.37
54248;BME280;40161;39.768;2.722;2023-11-19T11:55:24;101935.06;;;17.20;83.35
54248;BME280;40161;39.768;2.722;2023-11-19T11:57:50;101933.19;;;17.28;82.90
54248;BME280;40161;39.768;2.722;2023-11-19T12:00:26;101898.97;;;17.13;82.63
54248;BME280;40161;39.768;2.722;2023-11-19T12:02:52;101924.09;;;17.31;82.47
54248;BME280;40161;39.768;2.722;2023-11-19T12:05:17;101918.16;;;17.32;82.07
54248;BME280;40161;39.768;2.722;2023-11-19T12:07:58;101929.34;;;17.43;80.03
54248;BME280;40161;39.768;2.722;2023-11-19T12:10:25;101926.63;;;17.50;79.73
54248;BME280;40161;39.768;2.722;2023-11-19T12:12:58;101913.22;;;17.60;82.74
54248;BME280;40161;39.768;2.722;2023-11-19T12:15:23;101887.41;;;17.52;83.55
54248;BME280;40161;39.768;2.722;2023-11-19T12:17:51;101916.88;;;17.74;85.08
54248;BME280;40161;39.768;2.722;2023-11-19T12:20:18;101916.59;;;17.83;85.81
54248;BME280;40161;39.768;2.722;2023-11-19T12:22:45;101898.25;;;17.75;87.53
54248;BME280;40161;39.768;2.722;2023-11-19T12:25:12;101915.09;;;17.96;84.98
54248;BME280;40161;39.768;2.722;2023-11-19T12:27:43;101913.91;;;18.01;85.45
54248;BME280;40161;39.768;2.722;2023-11-19T12:30:09;101882.94;;;17.99;82.78
54248;BME280;40161;39.768;2.722;2023-11-19T12:32:41;101912.78;;;18.16;84.80
54248;BME280;40161;39.768;2.722;2023-11-19T12:35:10;101910.78;;;18.17;84.79
54248;BME280;40161;39.768;2.722;2023-11-19T12:37:43;101879.81;;;18.04;85.21
54248;BME280;40161;39.768;2.722;2023-11-19T12:40:17;101905.69;;;18.26;86.43
54248;BME280;40161;39.768;2.722;2023-11-19T12:42:46;101906.09;;;18.28;86.61
54248;BME280;40161;39.768;2.722;2023-11-19T12:45:13;101887.41;;;18.21;87.37
54248;BME280;40161;39.768;2.722;2023-11-19T12:47:45;101896.22;;;18.34;87.30
54248;BME280;40161;39.768;2.722;2023-11-19T12:50:17;101873.13;;;18.23;87.29
54248;BME280;40161;39.768;2.722;2023-11-19T12:52:58;101902.19;;;18.43;87.87
54248;BME280;40161;39.768;2.722;2023-11-19T12:55:27;101903.75;;;18.41;89.58
54248;BME280;40161;39.768;2.722;2023-11-19T12:57:53;101900.19;;;18.40;91.56
54248;BME280;40161;39.768;2.722;2023-11-19T13:00:22;101896.59;;;18.36;91.58
54248;BME280;40161;39.768;2.722;2023-11-19T13:02:49;101899.00;;;18.38;93.21
54248;BME280;40161;39.768;2.722;2023-11-19T13:08:05;101893.44;;;18.34;93.25
54248;BME280;40161;39.768;2.722;2023-11-19T13:10:51;101895.00;;;18.32;93.90
54248;BME280;40161;39.768;2.722;2023-11-19T13:13:17;101881.88;;;18.25;94.01